2022年8月14日 20:002022年8月14日 23:00有效
时间
星期日
20:00
星期日
21:00
星期日
22:00
代码
VFR
VFR
VFR
天气
天空晴朗
天空晴朗
天空晴朗
能见度
10 km+
10 km+
10 km+
天花板
-
-
-
Var
Var
Var
Var
Var
Var
速度
3 kt
3 kt
3 kt
阵风
温度/星期日
21:21

原版的

TAF ESNG 141730Z 1418/1421 VRB03KT CAVOK

TAF Gällivare Airport

Gällivare Airport是Gällivare,瑞典中的中型机场。 该机场有一条跑道: 12/30. 该领域的国际民航组织标志是ESNG 它的国际航空运输协会代码是GEV.

这份报告是针对2022年8月14日 19:30, 当地时间在Gällivare Airport进行的。 从2022年8月14日 20:00到2022年8月14日 23:00, 当地时间有效.

预报

  • 在星期日 20:00和23:00之间

    • 风: 可变方向的风很小或没有。
    • CAVOK: 天气为CAVOK。这意味着在5.000 ft或MSA(最低安全高度)以下(以较高者为准)以下没有云。这也意味着没有观测到积雨云或高耸的积云,可见度为10 km 或者更多或更高。此外,不会有雾,降雨或其他重要天气。

白天

今天,太阳从04:05升起,在21:17降落。 这适用于Gällivare Airport,世界夏令时可能有所不同。 当地时间与世界标准时间之间的时差为+2 小时。 夏令时目前正在进行中。

我们和第三方通过cookies跟踪您在我们网站上的上网行为。如果您继续,我们认为您同意我们的cookie政策。 了解更多